Sevier River near Sigurd




Date Battery Voltage (V) Panel Temperature (degC) River Stage (ft) River Discharge (cfs)
05/01/2017 13.43 14.34 1.14 36
05/02/2017 13.44 14.32 0.78 15
05/03/2017 13.48 15.50 0.79 15
05/04/2017 13.42 17.79 0.84 17
05/05/2017 13.37 21.52 0.98 24
05/06/2017 13.38 19.66 0.98 25
05/07/2017 13.40 21.47 1.05 28
05/08/2017 13.41 18.83 1.47 66
05/09/2017 13.39 16.10 1.70 87
05/10/2017 13.41 19.34 1.66 82
05/11/2017 13.40 20.81 1.64 80
05/12/2017 13.41 21.52 1.54 70
05/13/2017 13.45 20.03 1.43 58
05/14/2017 13.44 16.00 1.41 56
05/15/2017 13.39 15.36 1.43 58
05/16/2017 13.46 16.49 1.38 54
05/17/2017 13.40 9.45 1.38 54
05/18/2017 13.48 8.37 1.31 48
05/19/2017 13.48 12.21 1.17 37
05/20/2017 13.49 14.56 1.06 29
05/21/2017 13.46 13.49 1.06 29
05/22/2017 13.46 17.72 1.05 29
05/23/2017 13.40 20.64 0.87 19
05/24/2017 13.37 21.96 0.79 15
05/25/2017 13.44 23.10 0.79 15
05/26/2017 13.45 21.25 0.80 15
05/27/2017 13.49 19.43 0.82 16
05/28/2017 13.41 19.42 0.98 24
05/29/2017 13.40 20.26 1.03 27
05/30/2017 13.36 21.36 1.02 27
05/31/2017 13.42 20.96 0.89 20
Average 38
Maximum 87
Minimum 15
Total Volume (AF) 2,330